Time;durP1;ratioP1;P1;durP2;ratioP2;P2;SDS_P1;SDS_P2;PMS_P1;PMS_P2;Temp;Humidity;BMP_temperature;BMP_pressure;BME280_temperature;BME280_humidity;BME280_pressure;Samples;Min_cycle;Max_cycle;Signal;HPM_P1;HPM_P2
2022/05/12 00:02:06;;;;;;;13.07;4.32;;;17.30;99.90;;;;;;5014753;28;20767;-73
2022/05/12 00:04:33;;;;;;;10.15;3.45;;;17.30;99.90;;;;;;5023555;28;20066;-74
2022/05/12 00:07:00;;;;;;;10.95;3.90;;;17.30;99.90;;;;;;5014118;28;20088;-73
2022/05/12 00:09:28;;;;;;;14.25;4.30;;;17.20;99.90;;;;;;5017528;28;20042;-73
2022/05/12 00:11:54;;;;;;;8.38;3.50;;;17.20;99.90;;;;;;5032295;28;20454;-73
2022/05/12 00:14:21;;;;;;;10.90;3.65;;;17.10;99.90;;;;;;5029433;28;20140;-72
2022/05/12 00:16:47;;;;;;;10.57;3.47;;;17.10;99.90;;;;;;5013208;28;20478;-73
2022/05/12 00:19:14;;;;;;;12.38;3.90;;;17.10;99.90;;;;;;5017679;28;20076;-75
2022/05/12 00:21:41;;;;;;;7.57;3.17;;;17.10;99.90;;;;;;5048639;28;20055;-73
2022/05/12 00:24:07;;;;;;;9.27;3.63;;;17.20;99.90;;;;;;5048566;28;20600;-73
2022/05/12 00:26:36;;;;;;;12.02;3.55;;;17.20;99.90;;;;;;5017946;28;20102;-73
2022/05/12 00:29:05;;;;;;;11.30;3.75;;;17.20;99.90;;;;;;4999597;28;20038;-73
2022/05/12 00:31:33;;;;;;;10.00;3.60;;;17.10;99.90;;;;;;5020381;28;20045;-73
2022/05/12 00:34:00;;;;;;;15.32;3.58;;;17.10;99.90;;;;;;5023266;28;20061;-72
2022/05/12 00:36:27;;;;;;;9.65;3.33;;;17.20;99.90;;;;;;5049676;28;20044;-73
2022/05/12 00:38:53;;;;;;;6.97;2.90;;;17.30;99.90;;;;;;5025756;28;20049;-74
2022/05/12 00:41:19;;;;;;;7.05;2.75;;;17.30;99.90;;;;;;5028017;28;20038;-73
2022/05/12 00:43:48;;;;;;;7.95;3.45;;;17.30;99.90;;;;;;5054294;28;20049;-73
2022/05/12 00:46:17;;;;;;;11.82;3.10;;;17.30;99.90;;;;;;5028999;28;20045;-74
2022/05/12 00:48:45;;;;;;;14.05;3.55;;;17.30;99.90;;;;;;5019729;28;20038;-73
2022/05/12 00:51:15;;;;;;;13.27;3.30;;;17.20;99.90;;;;;;5024469;28;20038;-73
2022/05/12 00:53:43;;;;;;;8.90;3.35;;;17.10;99.90;;;;;;5053480;28;20667;-73
2022/05/12 00:56:13;;;;;;;11.48;3.83;;;17.10;99.90;;;;;;5021797;28;20048;-72
2022/05/12 00:58:41;;;;;;;13.15;3.58;;;17.10;99.90;;;;;;5016860;28;20179;-73
2022/05/12 01:01:10;;;;;;;10.20;2.80;;;17.00;99.90;;;;;;5019646;28;20908;-74
2022/05/12 01:03:39;;;;;;;7.43;3.15;;;17.00;99.90;;;;;;5053062;28;20034;-74
2022/05/12 01:06:06;;;;;;;7.75;3.33;;;17.00;99.90;;;;;;5018655;28;20038;-73
2022/05/12 01:08:34;;;;;;;10.35;2.95;;;16.90;99.90;;;;;;5049914;28;20045;-75
2022/05/12 01:11:07;;;;;;;7.90;3.17;;;16.90;99.90;;;;;;5021983;28;20030;-73
2022/05/12 01:13:34;;;;;;;7.57;3.08;;;16.90;99.90;;;;;;5024126;28;20046;-74
2022/05/12 01:16:02;;;;;;;10.82;3.20;;;16.90;99.90;;;;;;5021595;28;20037;-74
2022/05/12 01:18:31;;;;;;;10.55;3.17;;;16.80;99.90;;;;;;5007655;28;20956;-73
2022/05/12 01:20:58;;;;;;;12.90;3.65;;;16.80;99.90;;;;;;5005305;28;20034;-73
2022/05/12 01:23:37;;;;;;;7.95;3.30;;;16.80;99.90;;;;;;5005761;28;20034;-72
2022/05/12 01:26:09;;;;;;;8.40;3.30;;;16.90;99.90;;;;;;5003146;28;20144;-74
2022/05/12 01:28:36;;;;;;;;;;;16.90;99.90;;;;;;4997555;28;20037;-73
2022/05/12 01:31:04;;;;;;;13.35;3.40;;;16.90;99.90;;;;;;5005560;28;19958;-73
2022/05/12 01:33:31;;;;;;;8.70;3.28;;;17.00;99.90;;;;;;5020138;28;20590;-73
2022/05/12 01:35:57;;;;;;;9.70;3.50;;;16.90;99.90;;;;;;5018816;28;20046;-74
2022/05/12 01:38:24;;;;;;;10.65;3.10;;;16.90;99.90;;;;;;5015521;28;20416;-73
2022/05/12 01:40:52;;;;;;;11.15;3.35;;;16.90;99.90;;;;;;5056585;28;20493;-73
2022/05/12 01:43:19;;;;;;;9.13;3.47;;;17.00;99.90;;;;;;5051899;28;20129;-74
2022/05/12 01:45:46;;;;;;;8.52;3.47;;;17.00;99.90;;;;;;5019143;28;20382;-73
2022/05/12 01:48:13;;;;;;;9.63;3.42;;;17.00;99.90;;;;;;5018111;28;20041;-73
2022/05/12 01:50:42;;;;;;;9.88;3.53;;;17.00;99.90;;;;;;5022466;28;20041;-74
2022/05/12 01:53:11;;;;;;;9.05;3.00;;;17.00;99.90;;;;;;5052376;28;20034;-73
2022/05/12 01:55:38;;;;;;;9.50;3.00;;;16.90;99.90;;;;;;5017821;28;20042;-73
2022/05/12 01:58:06;;;;;;;8.20;3.13;;;16.80;99.90;;;;;;5019546;28;20497;-73
2022/05/12 02:00:33;;;;;;;10.15;3.38;;;16.80;99.90;;;;;;5036134;28;20041;-73
2022/05/12 02:03:00;;;;;;;9.38;3.13;;;16.80;99.90;;;;;;5022048;28;20041;-73
2022/05/12 02:05:29;;;;;;;9.40;3.33;;;16.70;99.90;;;;;;5049771;28;20041;-73
2022/05/12 02:07:55;;;;;;;10.02;3.45;;;16.70;99.90;;;;;;5020545;28;20045;-73
2022/05/12 02:10:25;;;;;;;7.25;3.17;;;16.70;99.90;;;;;;5018232;28;20041;-74
2022/05/12 02:12:51;;;;;;;9.57;3.55;;;16.70;99.90;;;;;;5023043;28;20041;-73
2022/05/12 02:15:18;;;;;;;10.48;3.40;;;16.60;99.90;;;;;;5018035;28;20053;-72
2022/05/12 02:17:44;;;;;;;13.10;3.78;;;16.60;99.90;;;;;;5018337;28;20560;-73
2022/05/12 02:20:11;;;;;;;14.18;4.35;;;16.60;99.90;;;;;;5016814;28;20041;-72
2022/05/12 02:22:37;;;;;;;11.80;3.65;;;16.60;99.90;;;;;;5049054;28;20029;-73
2022/05/12 02:25:05;;;;;;;8.07;3.53;;;16.60;99.90;;;;;;5014871;28;20052;-73
2022/05/12 02:27:31;;;;;;;12.20;3.63;;;16.70;99.90;;;;;;5017487;28;20053;-73
2022/05/12 02:29:57;;;;;;;7.22;3.28;;;16.70;99.90;;;;;;5020427;28;20087;-72
2022/05/12 02:32:27;;;;;;;13.00;3.63;;;16.80;99.90;;;;;;5017680;28;20362;-73
2022/05/12 02:34:55;;;;;;;9.45;3.72;;;16.80;99.90;;;;;;5020560;28;20128;-73
2022/05/12 02:37:21;;;;;;;10.98;3.35;;;16.80;99.90;;;;;;5025113;28;20059;-73
2022/05/12 02:39:46;;;;;;;7.18;3.13;;;16.70;99.90;;;;;;5049060;28;20042;-73
2022/05/12 02:42:12;;;;;;;8.88;3.35;;;16.70;99.90;;;;;;5014966;28;20048;-74
2022/05/12 02:44:39;;;;;;;8.15;2.80;;;16.80;99.90;;;;;;5027007;28;20030;-72
2022/05/12 02:47:09;;;;;;;11.13;3.35;;;16.70;99.90;;;;;;5036894;28;20040;-72
2022/05/12 02:49:37;;;;;;;11.25;3.13;;;16.70;99.90;;;;;;5023014;28;20196;-74
2022/05/12 02:52:04;;;;;;;8.90;3.25;;;16.70;99.90;;;;;;5017909;28;20045;-73
2022/05/12 02:54:31;;;;;;;8.32;3.67;;;16.60;99.90;;;;;;5051535;28;20042;-73
2022/05/12 02:56:57;;;;;;;9.65;3.30;;;16.60;99.90;;;;;;5024624;28;20676;-73
2022/05/12 02:59:23;;;;;;;9.65;3.95;;;16.60;99.90;;;;;;5045666;28;20045;-74
2022/05/12 03:01:50;;;;;;;10.20;3.40;;;16.60;99.90;;;;;;5019675;28;20470;-73
2022/05/12 03:04:16;;;;;;;13.40;3.53;;;16.60;99.90;;;;;;5002645;28;20061;-74
2022/05/12 03:06:43;;;;;;;10.73;2.67;;;16.50;99.90;;;;;;5016228;28;20037;-73
2022/05/12 03:09:10;;;;;;;10.15;2.85;;;17.00;99.90;;;;;;5026130;28;20045;-75
2022/05/12 03:11:36;;;;;;;10.27;3.50;;;17.10;99.90;;;;;;5019870;28;20045;-74
2022/05/12 03:14:03;;;;;;;8.40;3.38;;;17.10;99.90;;;;;;5018534;28;20042;-73
2022/05/12 03:16:30;;;;;;;10.50;2.70;;;17.00;99.90;;;;;;5049506;28;20046;-72
2022/05/12 03:18:57;;;;;;;11.57;3.55;;;17.40;99.90;;;;;;5048866;28;20037;-73
2022/05/12 03:21:23;;;;;;;13.45;3.15;;;17.50;99.90;;;;;;5016861;28;20042;-73
2022/05/12 03:23:50;;;;;;;10.80;3.08;;;17.30;99.90;;;;;;5023560;28;20049;-73
2022/05/12 03:26:16;;;;;;;7.85;3.20;;;17.10;99.90;;;;;;5034837;28;20053;-73
2022/05/12 03:28:42;;;;;;;6.13;3.10;;;17.00;99.90;;;;;;5023062;28;20041;-73
2022/05/12 03:31:09;;;;;;;10.93;3.72;;;16.90;99.90;;;;;;5050473;28;20510;-73
2022/05/12 03:33:36;;;;;;;8.25;3.45;;;16.90;99.90;;;;;;5022939;28;20069;-73
2022/05/12 03:36:03;;;;;;;7.85;2.97;;;16.90;99.90;;;;;;5023969;28;20040;-73
2022/05/12 03:38:29;;;;;;;8.63;3.40;;;17.10;99.90;;;;;;5026568;28;20351;-73
2022/05/12 03:40:55;;;;;;;8.23;3.30;;;17.00;99.90;;;;;;5013992;28;20120;-73
2022/05/12 03:46:07;;;;;;;12.55;3.38;;;16.80;99.90;;;;;;5016420;28;20052;-72
2022/05/12 03:48:39;;;;;;;7.68;3.25;;;16.70;99.90;;;;;;5014325;28;20030;-73
2022/05/12 03:51:06;;;;;;;6.83;3.57;;;16.60;99.90;;;;;;5041847;28;20037;-73
2022/05/12 03:53:33;;;;;;;8.32;3.40;;;16.70;99.90;;;;;;5018768;28;20042;-72
2022/05/12 03:56:00;;;;;;;6.60;3.85;;;16.60;99.90;;;;;;5018553;28;20050;-74
2022/05/12 03:58:27;;;;;;;9.23;3.53;;;16.50;99.90;;;;;;5051527;28;20204;-73
2022/05/12 04:00:54;;;;;;;9.57;3.53;;;16.60;99.90;;;;;;5018334;28;20117;-72
2022/05/12 04:03:21;;;;;;;10.13;3.70;;;16.50;99.90;;;;;;5016209;28;20065;-73
2022/05/12 04:05:47;;;;;;;9.55;3.65;;;16.50;99.90;;;;;;5050648;28;20604;-73
2022/05/12 04:08:14;;;;;;;10.52;3.30;;;16.50;99.90;;;;;;5016347;28;20046;-73
2022/05/12 04:10:40;;;;;;;10.85;3.42;;;16.40;99.90;;;;;;5008599;28;20080;-73
2022/05/12 04:13:07;;;;;;;9.77;3.65;;;16.40;99.90;;;;;;5050220;28;20113;-73
2022/05/12 04:15:33;;;;;;;13.48;3.40;;;16.50;99.90;;;;;;5015222;28;20045;-74
2022/05/12 04:18:01;;;;;;;8.25;3.50;;;16.40;99.90;;;;;;5022970;28;20080;-73
2022/05/12 04:20:29;;;;;;;12.88;4.47;;;16.50;99.90;;;;;;5035197;28;20100;-73
2022/05/12 04:22:55;;;;;;;11.32;4.70;;;16.40;99.90;;;;;;5041398;28;20468;-72
2022/05/12 04:25:23;;;;;;;11.35;5.30;;;16.50;99.90;;;;;;5051314;28;20140;-73
2022/05/12 04:27:50;;;;;;;12.57;4.78;;;16.50;99.90;;;;;;5022508;28;20095;-73
2022/05/12 04:30:18;;;;;;;13.55;5.50;;;16.40;99.90;;;;;;5020227;28;20048;-75
2022/05/12 04:32:44;;;;;;;11.40;4.82;;;16.40;99.90;;;;;;5021665;28;20998;-75
2022/05/12 04:35:14;;;;;;;12.82;5.10;;;16.40;99.90;;;;;;5024806;28;20038;-73
2022/05/12 04:37:47;;;;;;;9.32;4.63;;;16.40;99.90;;;;;;5057347;28;20034;-73
2022/05/12 04:40:18;;;;;;;8.23;4.95;;;16.40;99.90;;;;;;5036438;28;20034;-72
2022/05/12 04:42:44;;;;;;;14.35;4.15;;;16.40;99.90;;;;;;5019824;28;20061;-72
2022/05/12 04:45:12;;;;;;;13.68;4.60;;;16.30;99.90;;;;;;5053007;28;20037;-74
2022/05/12 04:47:39;;;;;;;10.82;3.75;;;16.30;99.90;;;;;;5047030;28;20034;-73
2022/05/12 04:50:08;;;;;;;11.63;5.10;;;16.30;99.90;;;;;;5054739;28;20038;-73
2022/05/12 04:52:34;;;;;;;9.40;4.30;;;16.30;99.90;;;;;;5022539;28;20033;-73
2022/05/12 04:55:01;;;;;;;12.80;4.75;;;16.40;99.90;;;;;;5024526;28;20115;-73
2022/05/12 04:57:27;;;;;;;11.70;5.25;;;16.40;99.90;;;;;;5023516;28;20504;-73
2022/05/12 04:59:55;;;;;;;16.73;5.45;;;16.30;99.90;;;;;;5050172;28;20041;-74
2022/05/12 05:02:23;;;;;;;8.80;4.60;;;16.30;99.90;;;;;;5050028;28;20041;-74
2022/05/12 05:04:53;;;;;;;11.68;4.75;;;16.30;99.90;;;;;;5019524;28;20119;-74
2022/05/12 05:07:20;;;;;;;11.43;5.15;;;16.40;99.90;;;;;;5038594;28;20097;-74
2022/05/12 05:09:46;;;;;;;13.52;5.28;;;16.40;99.90;;;;;;5019893;28;20509;-73
2022/05/12 05:12:12;;;;;;;11.60;5.35;;;16.50;99.90;;;;;;5046058;28;20081;-73
2022/05/12 05:14:38;;;;;;;9.18;5.22;;;16.50;99.90;;;;;;5045579;28;20065;-76
2022/05/12 05:17:04;;;;;;;14.98;5.93;;;16.50;99.90;;;;;;5020510;28;20052;-74
2022/05/12 05:19:31;;;;;;;11.48;6.05;;;16.60;99.90;;;;;;5020922;28;20041;-73
2022/05/12 05:21:57;;;;;;;14.50;5.57;;;16.50;99.90;;;;;;5020171;28;20034;-73
2022/05/12 05:24:24;;;;;;;17.25;5.93;;;16.60;99.90;;;;;;5052906;28;20048;-72
2022/05/12 05:26:50;;;;;;;16.40;8.73;;;16.70;99.90;;;;;;5051488;28;20401;-73
2022/05/12 05:29:17;;;;;;;13.40;6.75;;;16.80;99.90;;;;;;5018979;28;20044;-74
2022/05/12 05:31:44;;;;;;;15.43;6.60;;;16.70;99.90;;;;;;5056146;28;20038;-75
2022/05/12 05:34:11;;;;;;;12.18;6.30;;;16.70;99.90;;;;;;5019877;28;20052;-73
2022/05/12 05:36:39;;;;;;;14.60;6.72;;;16.80;99.90;;;;;;5052400;28;20157;-74
2022/05/12 05:39:07;;;;;;;11.52;7.22;;;16.80;99.90;;;;;;5019086;28;20057;-74
2022/05/12 05:41:37;;;;;;;20.02;8.13;;;16.90;99.90;;;;;;5016823;28;20397;-73
2022/05/12 05:44:02;;;;;;;19.75;8.73;;;16.90;99.90;;;;;;5020341;28;21159;-73
2022/05/12 05:46:29;;;;;;;19.92;8.80;;;17.00;99.90;;;;;;5040519;28;20041;-73
2022/05/12 05:48:55;;;;;;;17.67;8.13;;;17.10;99.90;;;;;;5018171;28;20087;-73
2022/05/12 05:54:07;;;;;;;19.63;8.63;;;17.10;99.90;;;;;;5022940;28;20045;-74
2022/05/12 05:56:33;;;;;;;15.15;8.02;;;17.30;99.90;;;;;;5028994;28;20409;-74
2022/05/12 05:58:59;;;;;;;15.73;7.97;;;17.30;99.90;;;;;;5023299;28;20041;-74
2022/05/12 06:01:25;;;;;;;14.07;6.80;;;17.50;99.90;;;;;;5038369;28;20022;-75
2022/05/12 06:03:52;;;;;;;14.00;4.90;;;17.60;99.90;;;;;;5026923;28;20042;-75
2022/05/12 06:06:19;;;;;;;18.65;7.18;;;17.70;99.90;;;;;;5049715;28;20034;-73
2022/05/12 06:08:46;;;;;;;17.05;7.32;;;17.90;99.90;;;;;;5022075;28;20488;-73
2022/05/12 06:11:12;;;;;;;13.00;5.85;;;18.00;99.90;;;;;;5005417;28;20132;-73
2022/05/12 06:13:38;;;;;;;15.02;7.20;;;18.10;99.90;;;;;;5013721;28;20216;-73
2022/05/12 06:16:05;;;;;;;16.40;7.05;;;18.10;99.90;;;;;;5019702;28;20046;-74
2022/05/12 06:18:31;;;;;;;19.40;6.78;;;18.10;99.90;;;;;;5018944;28;20533;-73
2022/05/12 06:20:57;;;;;;;15.38;4.43;;;18.10;99.90;;;;;;5014341;28;20046;-74
2022/05/12 06:23:23;;;;;;;10.90;4.68;;;18.20;99.90;;;;;;5022148;28;20095;-74
2022/05/12 06:25:50;;;;;;;13.80;4.10;;;18.40;99.90;;;;;;5050909;28;20046;-75
2022/05/12 06:28:16;;;;;;;13.85;4.10;;;18.50;99.90;;;;;;5053099;28;20049;-73
2022/05/12 06:30:43;;;;;;;12.57;4.47;;;18.60;99.90;;;;;;5019760;28;20501;-74
2022/05/12 06:33:16;;;;;;;15.80;4.32;;;18.70;99.90;;;;;;5051623;28;20049;-74
2022/05/12 06:35:42;;;;;;;12.85;5.63;;;18.70;99.90;;;;;;5018512;28;20030;-73
2022/05/12 06:38:08;;;;;;;8.63;3.75;;;18.80;99.90;;;;;;5049040;28;20393;-74
2022/05/12 06:40:34;;;;;;;9.75;3.78;;;18.80;99.90;;;;;;5024848;28;20033;-73
2022/05/12 06:43:08;;;;;;;16.30;7.20;;;18.90;99.90;;;;;;5040464;28;20580;-73
2022/05/12 06:45:35;;;;;;;16.48;8.10;;;18.90;99.90;;;;;;5014507;28;20034;-74
2022/05/12 06:48:01;;;;;;;9.68;4.15;;;18.80;99.90;;;;;;5050644;28;20037;-74
2022/05/12 06:50:31;;;;;;;17.10;6.30;;;18.90;99.90;;;;;;5018837;28;20373;-74
2022/05/12 06:52:58;;;;;;;17.13;7.88;;;19.00;99.90;;;;;;5020911;28;20151;-74
2022/05/12 06:55:27;;;;;;;16.08;7.25;;;19.10;99.90;;;;;;5024275;28;20041;-75
2022/05/12 06:57:54;;;;;;;19.23;7.25;;;19.00;99.90;;;;;;5019520;28;20129;-75
2022/05/12 07:00:22;;;;;;;17.05;8.10;;;19.10;99.90;;;;;;5050724;28;20037;-75
2022/05/12 07:02:50;;;;;;;17.92;8.40;;;19.10;99.90;;;;;;5019679;28;20040;-74
2022/05/12 07:05:19;;;;;;;21.10;8.10;;;19.10;99.90;;;;;;5018531;28;20038;-74
2022/05/12 07:07:45;;;;;;;27.15;8.02;;;19.20;99.90;;;;;;5004422;28;20061;-73
2022/05/12 07:10:13;;;;;;;13.20;5.40;;;19.30;99.90;;;;;;5013581;28;20041;-74
2022/05/12 07:12:41;;;;;;;12.80;5.60;;;19.40;99.90;;;;;;5019184;28;20044;-74
2022/05/12 07:15:10;;;;;;;14.75;4.95;;;19.50;99.90;;;;;;5005439;28;20136;-74
2022/05/12 07:17:38;;;;;;;10.45;4.43;;;19.50;99.90;;;;;;5014989;28;20084;-74
2022/05/12 07:28:21;;;;;;;11.65;3.30;;;19.80;99.20;;;;;;5017836;28;20048;-73
2022/05/12 07:31:02;;;;;;;15.88;3.50;;;19.90;99.10;;;;;;5021897;28;20064;-74
2022/05/12 07:33:35;;;;;;;7.38;3.35;;;20.00;99.00;;;;;;5027266;28;20067;-73
2022/05/12 07:36:09;;;;;;;11.43;3.25;;;20.00;98.90;;;;;;5036258;28;20034;-74
2022/05/12 07:38:36;;;;;;;10.20;3.53;;;20.10;98.80;;;;;;4998580;28;20108;-73
2022/05/12 07:41:04;;;;;;;9.15;3.10;;;20.20;98.60;;;;;;4991415;28;20065;-74
2022/05/12 07:43:30;;;;;;;13.90;3.40;;;20.30;98.60;;;;;;4999339;28;20766;-73
2022/05/12 07:45:56;;;;;;;8.48;3.00;;;20.40;98.40;;;;;;5005456;28;20076;-73
2022/05/12 07:48:22;;;;;;;8.25;2.95;;;20.50;98.50;;;;;;5009187;28;20037;-74
2022/05/12 07:50:49;;;;;;;9.75;2.72;;;20.40;98.30;;;;;;5001769;28;20037;-74
2022/05/12 07:53:18;;;;;;;9.98;2.85;;;20.40;97.90;;;;;;5005322;28;20379;-74
2022/05/12 07:55:45;;;;;;;6.97;2.90;;;20.50;97.90;;;;;;5049293;28;20038;-72
2022/05/12 07:58:11;;;;;;;9.48;2.92;;;20.50;97.80;;;;;;5020553;28;20057;-74
2022/05/12 08:00:38;;;;;;;6.47;2.72;;;20.50;97.70;;;;;;5018705;28;20065;-74
2022/05/12 08:03:04;;;;;;;8.50;3.00;;;20.60;97.60;;;;;;5054038;28;20118;-74
2022/05/12 08:05:31;;;;;;;7.28;2.90;;;20.60;97.60;;;;;;5020648;28;20533;-74
2022/05/12 08:07:57;;;;;;;9.40;3.03;;;20.50;97.50;;;;;;5053471;28;20041;-73
2022/05/12 08:10:24;;;;;;;10.77;3.00;;;20.70;97.30;;;;;;5003625;28;20038;-73
2022/05/12 08:12:50;;;;;;;11.30;3.20;;;20.80;97.00;;;;;;5010738;28;20042;-74
2022/05/12 08:15:18;;;;;;;10.80;3.30;;;20.90;96.70;;;;;;5008488;28;20238;-74
2022/05/12 08:17:44;;;;;;;7.38;2.50;;;21.00;96.70;;;;;;4983275;28;20042;-73
2022/05/12 08:20:12;;;;;;;8.00;2.90;;;21.00;96.50;;;;;;5034809;28;23937;-75
2022/05/12 08:22:38;;;;;;;12.45;3.03;;;21.10;96.50;;;;;;5006152;28;20091;-73
2022/05/12 08:25:07;;;;;;;11.07;3.00;;;21.20;96.40;;;;;;5004467;28;20042;-73
2022/05/12 08:27:35;;;;;;;8.95;2.75;;;21.20;96.20;;;;;;5034173;28;20057;-74
2022/05/12 08:30:02;;;;;;;10.05;3.05;;;21.30;96.00;;;;;;5009394;28;20069;-74
2022/05/12 08:32:29;;;;;;;7.28;2.75;;;21.30;96.20;;;;;;5059456;28;20569;-74
2022/05/12 08:34:56;;;;;;;5.97;2.58;;;22.50;94.10;;;;;;5004743;28;20041;-74
2022/05/12 08:37:23;;;;;;;11.00;2.80;;;23.80;93.40;;;;;;5008877;28;22426;-73
2022/05/12 08:39:49;;;;;;;8.55;2.60;;;24.70;91.90;;;;;;5008699;28;20592;-73
2022/05/12 08:42:41;;;;;;;14.18;2.90;;;24.60;90.60;;;;;;5011009;28;20038;-73
2022/05/12 08:45:11;;;;;;;7.35;2.63;;;23.90;89.80;;;;;;5008810;28;20133;-74
2022/05/12 08:47:42;;;;;;;11.35;2.78;;;24.50;88.80;;;;;;5037918;28;20050;-74
2022/05/12 08:50:11;;;;;;;9.63;2.60;;;25.30;88.30;;;;;;5010170;28;20127;-72
2022/05/12 08:52:48;;;;;;;9.70;2.67;;;25.60;88.00;;;;;;5019143;28;20053;-74
2022/05/12 08:55:25;;;;;;;7.78;2.50;;;25.20;90.00;;;;;;5032817;28;20044;-74
2022/05/12 08:58:04;;;;;;;8.35;2.45;;;25.40;89.60;;;;;;5007676;28;20052;-74
2022/05/12 09:00:46;;;;;;;8.90;2.90;;;25.50;89.60;;;;;;5022425;28;20060;-74
2022/05/12 09:03:31;;;;;;;7.63;3.10;;;25.60;89.50;;;;;;5000677;28;20041;-73
2022/05/12 09:06:17;;;;;;;12.90;3.00;;;25.60;89.30;;;;;;5010553;28;20048;-75
2022/05/12 09:09:10;;;;;;;12.65;3.70;;;25.50;87.80;;;;;;5001488;28;20036;-74
2022/05/12 09:11:44;;;;;;;8.35;3.03;;;24.00;88.80;;;;;;4990468;28;20063;-74
2022/05/12 09:14:16;;;;;;;8.18;2.90;;;24.10;89.80;;;;;;5033927;28;20041;-74
2022/05/12 09:16:43;;;;;;;11.02;3.10;;;24.00;90.50;;;;;;5009441;28;20126;-73
2022/05/12 09:19:14;;;;;;;14.40;3.20;;;25.10;90.30;;;;;;5008060;28;20481;-73
2022/05/12 09:21:40;;;;;;;9.00;3.08;;;25.90;88.10;;;;;;5036517;28;20425;-74
2022/05/12 09:24:09;;;;;;;10.52;3.05;;;26.40;85.70;;;;;;5007691;28;20041;-73
2022/05/12 09:26:38;;;;;;;9.13;2.67;;;26.50;86.30;;;;;;5040091;28;20065;-74
2022/05/12 09:29:26;;;;;;;13.13;2.65;;;26.70;86.20;;;;;;4984976;28;20053;-73
2022/05/12 09:32:03;;;;;;;13.32;3.55;;;26.80;86.20;;;;;;5029337;28;20094;-74
2022/05/12 09:34:32;;;;;;;13.18;3.50;;;26.10;87.50;;;;;;5020863;28;20049;-73
2022/05/12 09:37:20;;;;;;;14.50;3.33;;;27.00;86.50;;;;;;5005765;28;20049;-74
2022/05/12 09:39:49;;;;;;;8.75;3.00;;;27.10;87.00;;;;;;5016410;28;20072;-73
2022/05/12 09:42:28;;;;;;;14.55;3.25;;;26.40;88.30;;;;;;5027528;28;20034;-75
2022/05/12 09:45:06;;;;;;;9.70;3.13;;;26.70;88.80;;;;;;4994953;28;20060;-73
2022/05/12 09:47:39;;;;;;;8.88;3.10;;;25.70;89.70;;;;;;5019272;28;20585;-77
2022/05/12 09:50:27;;;;;;;11.32;3.00;;;26.40;88.80;;;;;;5012720;28;20466;-73
2022/05/12 09:53:00;;;;;;;8.23;2.90;;;26.90;88.70;;;;;;5046357;28;20108;-75
2022/05/12 09:55:27;;;;;;;13.52;3.15;;;25.60;89.50;;;;;;5017387;28;20041;-73
2022/05/12 09:57:59;;;;;;;15.77;3.20;;;26.50;88.70;;;;;;5014946;28;20482;-75
2022/05/12 10:00:38;;;;;;;15.23;3.38;;;26.30;88.90;;;;;;5051667;28;20037;-74
2022/05/12 10:09:14;;;;;;;8.13;2.80;;;26.60;87.30;;;;;;5004223;28;20153;-74
2022/05/12 10:12:11;;;;;;;8.60;2.53;;;26.10;85.80;;;;;;5046422;28;20470;-74
2022/05/12 10:14:55;;;;;;;10.05;2.53;;;26.90;86.10;;;;;;5036456;28;20045;-75
2022/05/12 10:17:44;;;;;;;11.73;2.80;;;26.40;84.70;;;;;;5039061;28;20030;-75
2022/05/12 10:20:13;;;;;;;12.95;2.83;;;27.10;84.90;;;;;;5004751;28;20076;-75
2022/05/12 10:22:52;;;;;;;10.52;2.80;;;26.00;86.30;;;;;;5037806;28;20034;-73
2022/05/12 10:25:56;;;;;;;13.57;2.92;;;25.60;86.10;;;;;;5035434;28;20049;-75
2022/05/12 10:28:48;;;;;;;12.02;2.65;;;26.70;86.40;;;;;;5030919;28;21305;-74
2022/05/12 10:31:24;;;;;;;12.77;3.15;;;27.50;85.30;;;;;;5008962;28;20038;-74
2022/05/12 10:34:31;;;;;;;12.95;3.38;;;27.00;85.60;;;;;;5025400;28;20041;-74
2022/05/12 10:37:34;;;;;;;15.20;3.10;;;26.50;85.70;;;;;;5026258;28;20046;-75
2022/05/12 10:40:18;;;;;;;7.70;2.83;;;27.10;86.30;;;;;;5001606;28;20057;-75
2022/05/12 10:43:16;;;;;;;9.90;2.80;;;25.70;87.30;;;;;;5013343;28;20040;-75
2022/05/12 10:46:11;;;;;;;7.82;2.75;;;25.40;88.00;;;;;;5016858;28;20505;-75
2022/05/12 10:49:05;;;;;;;7.93;2.50;;;25.00;88.70;;;;;;5014998;28;20069;-74
2022/05/12 10:51:50;;;;;;;7.38;2.33;;;25.50;87.70;;;;;;5006808;28;20048;-75
2022/05/12 10:54:34;;;;;;;10.63;2.80;;;25.80;86.40;;;;;;5005271;28;20046;-76
2022/05/12 10:57:09;;;;;;;7.25;2.80;;;25.40;86.80;;;;;;5041158;28;20041;-76
2022/05/12 10:59:58;;;;;;;11.43;3.10;;;25.60;85.30;;;;;;5003933;28;20037;-74
2022/05/12 11:02:44;;;;;;;12.00;3.25;;;25.80;88.70;;;;;;5010588;28;20040;-78
2022/05/12 11:05:45;;;;;;;11.23;2.55;;;25.30;87.20;;;;;;5000671;28;20037;-74
2022/05/12 11:08:18;;;;;;;9.02;3.00;;;26.10;88.10;;;;;;5040456;28;20092;-75
2022/05/12 11:10:55;;;;;;;6.72;2.53;;;25.70;86.80;;;;;;5003569;28;20069;-75
2022/05/12 11:13:49;;;;;;;9.82;2.80;;;24.60;88.00;;;;;;5006698;28;20409;-75
2022/05/12 11:16:26;;;;;;;11.95;2.63;;;25.10;87.50;;;;;;5044287;28;20065;-75
2022/05/12 11:19:05;;;;;;;10.52;3.03;;;25.30;87.00;;;;;;5020993;28;20121;-75
2022/05/12 11:21:55;;;;;;;7.13;2.58;;;25.50;86.90;;;;;;5007599;28;20033;-75
2022/05/12 11:24:28;;;;;;;15.93;3.20;;;25.90;84.60;;;;;;5036379;28;20038;-74
2022/05/12 11:27:01;;;;;;;10.27;3.17;;;26.40;83.70;;;;;;5010104;28;20034;-74
2022/05/12 11:29:48;;;;;;;8.52;2.58;;;26.00;82.60;;;;;;5047312;28;20469;-74
2022/05/12 11:33:02;;;;;;;12.38;3.03;;;26.30;84.20;;;;;;5003119;28;20096;-74
2022/05/12 11:35:52;;;;;;;10.00;2.80;;;26.40;84.70;;;;;;4983073;28;20112;-74
2022/05/12 11:38:42;;;;;;;11.00;3.17;;;26.20;83.90;;;;;;4984943;28;20053;-74
2022/05/12 11:41:36;;;;;;;8.57;2.55;;;26.60;82.70;;;;;;4986231;28;20038;-75
2022/05/12 11:44:33;;;;;;;7.10;2.80;;;26.40;81.80;;;;;;5000550;28;20621;-74
2022/05/12 11:47:30;;;;;;;10.50;3.30;;;26.90;82.60;;;;;;5002751;28;20044;-74
2022/05/12 11:50:13;;;;;;;8.80;3.20;;;26.90;82.80;;;;;;5014823;28;20026;-75
2022/05/12 11:53:12;;;;;;;8.45;2.92;;;26.90;82.60;;;;;;4989616;28;20038;-74
2022/05/12 11:56:32;;;;;;;7.88;3.08;;;26.50;84.10;;;;;;5003140;28;20111;-73
2022/05/12 11:59:20;;;;;;;7.80;3.00;;;26.00;83.60;;;;;;5007480;28;20109;-77
2022/05/12 12:02:05;;;;;;;10.68;2.42;;;27.10;82.60;;;;;;5020328;28;20033;-74
2022/05/12 12:04:48;;;;;;;5.13;2.55;;;27.30;80.90;;;;;;5018768;28;20936;-75
2022/05/12 12:07:28;;;;;;;11.93;2.88;;;27.50;81.50;;;;;;5008315;28;20031;-75
2022/05/12 12:09:56;;;;;;;8.73;2.58;;;27.10;81.30;;;;;;5005406;28;20038;-74
2022/05/12 12:12:44;;;;;;;8.20;2.58;;;27.20;82.20;;;;;;5028448;28;20064;-75
2022/05/12 12:15:32;;;;;;;7.40;2.75;;;27.60;80.90;;;;;;4996680;28;20120;-74
2022/05/12 12:18:00;;;;;;;12.13;2.95;;;27.30;81.60;;;;;;4980443;28;20069;-74
2022/05/12 12:20:31;;;;;;;9.15;2.70;;;26.60;82.20;;;;;;5032553;28;20042;-75
2022/05/12 12:23:24;;;;;;;9.43;2.55;;;27.10;82.60;;;;;;5006096;28;20503;-76
2022/05/12 12:26:05;;;;;;;9.80;3.00;;;27.30;81.80;;;;;;5004189;28;20046;-76
2022/05/12 12:28:58;;;;;;;13.57;2.80;;;26.70;83.00;;;;;;5007418;28;20411;-74
2022/05/12 12:31:30;;;;;;;5.13;2.67;;;25.70;82.20;;;;;;5004247;28;20228;-75
2022/05/12 12:34:17;;;;;;;9.65;3.08;;;27.00;83.50;;;;;;5038159;28;20046;-74
2022/05/12 12:36:50;;;;;;;6.45;2.63;;;27.80;82.80;;;;;;5009585;28;20034;-75
2022/05/12 12:39:41;;;;;;;8.63;3.17;;;28.20;82.50;;;;;;5039862;28;20042;-76
2022/05/12 12:42:46;;;;;;;13.90;3.50;;;28.10;82.40;;;;;;5004442;28;20037;-74
2022/05/12 12:45:18;;;;;;;9.43;2.50;;;28.20;82.40;;;;;;4990523;28;20026;-75
2022/05/12 12:48:11;;;;;;;9.50;2.80;;;27.10;83.70;;;;;;5004573;28;20444;-74
2022/05/12 12:50:45;;;;;;;7.07;2.25;;;26.00;84.20;;;;;;5004735;28;20041;-74
2022/05/12 12:56:36;;;;;;;6.40;2.40;;;26.00;86.00;;;;;;5016154;28;20048;-75
2022/05/12 12:59:13;;;;;;;6.07;2.70;;;27.20;84.60;;;;;;5016400;28;20124;-73
2022/05/12 13:01:57;;;;;;;7.65;2.63;;;27.30;85.20;;;;;;5029717;28;20065;-74
2022/05/12 13:04:26;;;;;;;10.35;2.75;;;27.10;84.30;;;;;;5003922;28;20085;-75
2022/05/12 13:07:06;;;;;;;8.82;2.72;;;27.60;83.40;;;;;;5046748;28;20037;-75
2022/05/12 13:09:37;;;;;;;7.53;3.00;;;27.70;83.10;;;;;;5004186;28;20046;-75
2022/05/12 13:12:27;;;;;;;9.20;2.87;;;28.20;83.20;;;;;;5045810;28;20036;-75
2022/05/12 13:15:00;;;;;;;15.82;3.03;;;27.60;84.00;;;;;;5001421;28;20052;-74
2022/05/12 13:17:37;;;;;;;14.98;3.38;;;27.40;84.90;;;;;;5028024;28;20526;-75
2022/05/12 13:20:37;;;;;;;10.55;2.92;;;28.40;84.10;;;;;;5006153;28;20121;-75
2022/05/12 13:23:07;;;;;;;11.63;3.05;;;28.40;83.90;;;;;;5000865;28;20119;-76
2022/05/12 13:25:38;;;;;;;12.48;3.28;;;28.40;83.80;;;;;;5007921;28;20030;-74
2022/05/12 13:28:06;;;;;;;13.63;2.90;;;27.40;84.10;;;;;;5040208;28;20038;-76
2022/05/12 13:30:45;;;;;;;7.43;2.85;;;27.70;84.00;;;;;;5011773;28;20085;-75